Time;durP1;ratioP1;P1;durP2;ratioP2;P2;SDS_P1;SDS_P2;PMS_P1;PMS_P2;Temp;Humidity;BMP_temperature;BMP_pressure;BME280_temperature;BME280_humidity;BME280_pressure;Samples;Min_cycle;Max_cycle;Signal;HPM_P1;HPM_P2
2022/01/22 00:01:10;;;;;;;15.13;3.75;;;7.30;99.90;;;;;;5093736;28;20086;-69
2022/01/22 00:03:37;;;;;;;18.98;3.97;;;7.20;99.90;;;;;;5093780;28;20093;-69
2022/01/22 00:06:04;;;;;;;22.67;4.07;;;7.20;99.90;;;;;;5091881;28;20058;-69
2022/01/22 00:08:29;;;;;;;21.55;4.20;;;7.20;99.90;;;;;;5093438;28;20430;-69
2022/01/22 00:10:55;;;;;;;18.58;5.57;;;7.20;99.90;;;;;;5092623;28;20130;-69
2022/01/22 00:16:05;;;;;;;21.30;4.35;;;7.30;99.90;;;;;;5093227;28;20127;-69
2022/01/22 00:18:31;;;;;;;24.42;3.70;;;7.30;99.90;;;;;;5095845;28;20082;-69
2022/01/22 00:20:57;;;;;;;13.45;3.00;;;7.20;99.90;;;;;;5098079;28;20372;-69
2022/01/22 00:23:26;;;;;;;20.33;3.65;;;7.20;99.90;;;;;;5097959;28;20484;-69
2022/01/22 00:25:53;;;;;;;13.75;2.72;;;7.20;99.90;;;;;;5097459;28;20039;-69
2022/01/22 00:28:18;;;;;;;14.70;3.50;;;7.20;99.90;;;;;;5097508;28;20048;-69
2022/01/22 00:30:44;;;;;;;23.15;3.65;;;7.30;99.90;;;;;;5097369;28;20036;-69
2022/01/22 00:33:10;;;;;;;11.80;3.33;;;7.20;99.90;;;;;;5097772;28;20036;-69
2022/01/22 00:35:36;;;;;;;15.73;2.85;;;7.20;99.90;;;;;;5095925;28;20036;-69
2022/01/22 00:38:01;;;;;;;10.55;2.78;;;7.20;99.90;;;;;;5097441;28;20047;-69
2022/01/22 00:40:27;;;;;;;12.10;2.72;;;7.10;99.90;;;;;;5095757;28;20054;-69
2022/01/22 00:42:52;;;;;;;12.43;3.13;;;7.20;99.90;;;;;;5097281;28;20051;-69
2022/01/22 00:45:19;;;;;;;10.98;2.50;;;7.20;99.90;;;;;;5097374;28;20067;-69
2022/01/22 00:47:46;;;;;;;10.45;2.25;;;7.20;99.90;;;;;;5095377;28;20488;-69
2022/01/22 00:50:14;;;;;;;13.40;2.97;;;7.20;99.90;;;;;;5097019;28;20043;-69
2022/01/22 00:52:41;;;;;;;9.50;2.63;;;7.20;99.90;;;;;;5096919;28;20036;-69
2022/01/22 00:55:08;;;;;;;10.55;2.75;;;7.30;99.90;;;;;;5096883;28;20407;-69
2022/01/22 00:57:33;;;;;;;17.15;3.60;;;7.20;99.90;;;;;;5096638;28;20127;-69
2022/01/22 00:59:59;;;;;;;14.93;3.53;;;7.30;99.90;;;;;;5096728;28;20490;-69
2022/01/22 01:02:24;;;;;;;17.15;2.92;;;7.20;99.90;;;;;;5095918;28;20050;-69
2022/01/22 01:04:50;;;;;;;14.98;2.63;;;7.20;99.90;;;;;;5097273;28;20434;-69
2022/01/22 01:07:16;;;;;;;13.10;2.92;;;7.20;99.90;;;;;;5096301;28;20124;-69
2022/01/22 01:09:41;;;;;;;10.20;2.05;;;7.20;99.90;;;;;;5097141;28;20476;-69
2022/01/22 01:12:11;;;;;;;11.07;3.38;;;7.20;99.90;;;;;;5097045;28;20039;-69
2022/01/22 01:14:50;;;;;;;15.25;3.03;;;7.10;99.90;;;;;;5096673;28;20040;-69
2022/01/22 01:33:59;;;;;;;10.32;2.33;;;7.20;99.90;;;;;;5096217;28;20044;-69
2022/01/22 01:36:24;;;;;;;9.45;2.15;;;7.30;99.90;;;;;;5096033;28;20484;-69
2022/01/22 01:38:55;;;;;;;8.10;2.08;;;7.20;99.90;;;;;;5095909;28;20118;-69
2022/01/22 01:41:31;;;;;;;10.95;1.88;;;7.30;99.90;;;;;;5096334;28;20040;-69
2022/01/22 01:43:57;;;;;;;12.45;1.98;;;7.20;99.90;;;;;;5094860;28;20438;-69
2022/01/22 01:46:24;;;;;;;11.02;1.77;;;7.20;99.90;;;;;;5095714;28;20040;-69
2022/01/22 01:48:50;;;;;;;11.13;2.65;;;7.20;99.90;;;;;;5094444;28;20118;-69
2022/01/22 01:51:16;;;;;;;10.50;2.30;;;7.20;99.90;;;;;;5094541;28;20127;-69
2022/01/22 01:53:59;;;;;;;8.82;1.80;;;7.10;99.90;;;;;;5095989;28;20119;-69
2022/01/22 01:59:14;;;;;;;8.20;1.45;;;7.10;99.90;;;;;;5083948;28;20282;-69
2022/01/22 02:01:39;;;;;;;7.70;1.90;;;7.20;99.90;;;;;;5095508;28;20047;-69
2022/01/22 02:04:08;;;;;;;12.68;1.85;;;7.20;99.90;;;;;;5095884;28;20115;-69
2022/01/22 02:06:33;;;;;;;10.95;2.25;;;7.20;99.90;;;;;;5095113;28;20040;-69
2022/01/22 02:08:59;;;;;;;11.77;1.40;;;7.20;99.90;;;;;;5095884;28;20043;-69
2022/01/22 02:11:27;;;;;;;11.23;2.00;;;7.20;99.90;;;;;;5095883;28;20492;-69
2022/01/22 02:23:31;;;;;;;10.60;2.63;;;7.20;99.90;;;;;;5094127;28;20048;-69
2022/01/22 02:25:08;;;;;;;7.63;1.70;;;7.20;99.90;;;;;;5095153;28;20144;-70
2022/01/22 02:27:33;;;;;;;10.82;2.35;;;7.20;99.90;;;;;;5095134;28;20036;-70
2022/01/22 02:29:59;;;;;;;8.15;2.70;;;7.10;99.90;;;;;;5095221;28;20119;-69
2022/01/22 02:35:18;;;;;;;9.95;2.00;;;7.20;99.90;;;;;;5093867;28;20079;-69
2022/01/22 02:37:51;;;;;;;12.70;2.92;;;7.20;99.90;;;;;;5094559;28;20127;-69
2022/01/22 02:40:24;;;;;;;11.27;2.50;;;7.10;99.90;;;;;;5094859;28;20047;-69
2022/01/22 02:42:50;;;;;;;12.90;2.60;;;7.20;99.90;;;;;;5095312;28;20044;-70
2022/01/22 02:45:20;;;;;;;10.90;2.88;;;7.10;99.90;;;;;;5093702;28;20047;-70
2022/01/22 02:47:46;;;;;;;13.55;3.28;;;7.10;99.90;;;;;;5094580;28;20075;-70
2022/01/22 02:50:15;;;;;;;16.02;2.67;;;7.10;99.90;;;;;;5093850;28;20116;-69
2022/01/22 02:52:41;;;;;;;16.10;3.42;;;7.10;99.90;;;;;;5094700;28;20040;-70
2022/01/22 02:55:08;;;;;;;8.95;2.20;;;7.00;99.90;;;;;;5094987;28;20101;-70
2022/01/22 02:57:35;;;;;;;11.35;1.88;;;7.10;99.90;;;;;;5094687;28;20044;-69
2022/01/22 03:00:04;;;;;;;13.02;2.15;;;7.10;99.90;;;;;;5095095;28;20036;-69
2022/01/22 03:02:30;;;;;;;5.22;1.80;;;7.00;99.90;;;;;;5094485;28;20495;-69
2022/01/22 03:04:56;;;;;;;10.55;2.65;;;7.10;99.90;;;;;;5094589;28;20036;-70
2022/01/22 03:07:21;;;;;;;12.85;2.70;;;7.10;99.90;;;;;;5093940;28;20074;-70
2022/01/22 03:09:49;;;;;;;7.50;1.98;;;7.00;99.90;;;;;;5094658;28;20598;-70
2022/01/22 03:22:22;;;;;;;8.13;2.40;;;7.00;99.90;;;;;;5092880;28;20055;-70
2022/01/22 03:27:34;;;;;;;10.20;1.90;;;7.00;99.90;;;;;;5093811;28;20048;-70
2022/01/22 03:30:00;;;;;;;6.10;2.40;;;7.00;99.90;;;;;;5092737;28;20048;-70
2022/01/22 03:32:30;;;;;;;9.48;2.45;;;7.10;99.90;;;;;;5092764;28;20057;-70
2022/01/22 03:35:10;;;;;;;11.68;2.35;;;7.00;99.90;;;;;;5093010;28;20068;-71
2022/01/22 03:37:37;;;;;;;10.90;2.42;;;7.10;99.90;;;;;;5093463;28;20051;-69
2022/01/22 03:40:04;;;;;;;10.02;2.47;;;7.10;99.90;;;;;;5093674;28;20484;-69
2022/01/22 03:42:30;;;;;;;9.63;1.75;;;7.10;99.90;;;;;;5075997;28;20046;-69
2022/01/22 03:44:55;;;;;;;9.02;1.85;;;7.10;99.90;;;;;;5093754;28;20399;-69
2022/01/22 03:47:21;;;;;;;8.23;1.70;;;7.10;99.90;;;;;;5093650;28;20069;-69
2022/01/22 03:49:46;;;;;;;6.82;2.08;;;7.10;99.90;;;;;;5092372;28;20042;-70
2022/01/22 03:52:12;;;;;;;10.48;1.73;;;7.10;99.90;;;;;;5092819;28;20046;-70
2022/01/22 03:54:38;;;;;;;11.45;1.95;;;7.00;99.90;;;;;;5092511;28;20103;-70
2022/01/22 03:57:04;;;;;;;11.95;2.00;;;7.00;99.90;;;;;;5093348;28;20068;-69
2022/01/22 03:59:30;;;;;;;15.93;2.65;;;7.00;99.90;;;;;;5094040;28;20036;-69
2022/01/22 04:04:34;;;;;;;17.38;2.15;;;7.00;99.90;;;;;;5093601;28;20063;-69
2022/01/22 04:09:42;;;;;;;11.60;2.50;;;7.00;99.90;;;;;;5093671;28;20044;-69
2022/01/22 04:12:10;;;;;;;12.70;2.33;;;7.00;99.90;;;;;;5092231;28;20042;-69
2022/01/22 04:14:43;;;;;;;7.38;1.77;;;7.10;99.90;;;;;;5093442;28;20040;-69
2022/01/22 04:25:26;;;;;;;7.70;1.50;;;7.00;99.90;;;;;;5092096;28;20131;-70
2022/01/22 04:27:53;;;;;;;3.58;1.40;;;7.00;99.90;;;;;;5092854;28;20059;-69
2022/01/22 04:30:20;;;;;;;6.57;1.42;;;7.00;99.90;;;;;;5092305;28;20081;-69
2022/01/22 04:32:47;;;;;;;6.22;1.30;;;7.00;99.90;;;;;;5092328;28;20040;-69
2022/01/22 04:35:13;;;;;;;5.88;1.60;;;7.00;99.90;;;;;;5093244;28;20114;-69
2022/01/22 04:37:38;;;;;;;6.35;1.45;;;7.00;99.90;;;;;;5092821;28;20161;-69
2022/01/22 04:40:06;;;;;;;7.78;1.40;;;6.90;99.90;;;;;;5093037;28;20063;-69
2022/01/22 04:42:35;;;;;;;9.18;1.95;;;6.90;99.90;;;;;;5092831;28;20032;-69
2022/01/22 04:45:07;;;;;;;7.43;2.00;;;6.90;99.90;;;;;;5092175;28;20086;-69
2022/01/22 04:47:45;;;;;;;5.22;1.85;;;6.90;99.90;;;;;;5093059;28;20117;-69
2022/01/22 04:55:36;;;;;;;6.43;1.85;;;6.90;99.90;;;;;;5091432;28;20050;-68
2022/01/22 04:58:03;;;;;;;8.75;1.70;;;6.90;99.90;;;;;;5093345;28;20040;-69
2022/01/22 05:00:34;;;;;;;7.22;2.08;;;6.90;99.90;;;;;;5092994;28;20055;-69
2022/01/22 05:03:00;;;;;;;6.90;1.92;;;6.90;99.90;;;;;;5093025;28;20056;-69
2022/01/22 05:05:26;;;;;;;14.50;2.22;;;6.90;99.90;;;;;;5097784;28;20040;-69
2022/01/22 05:07:52;;;;;;;5.88;1.90;;;6.90;99.90;;;;;;5096401;28;20040;-69
2022/01/22 05:10:19;;;;;;;5.57;1.50;;;6.90;99.90;;;;;;5096621;28;20043;-69
2022/01/22 05:12:44;;;;;;;8.18;1.55;;;6.90;99.90;;;;;;5096748;28;20032;-69
2022/01/22 05:15:11;;;;;;;7.90;1.63;;;6.80;99.90;;;;;;5095240;28;20047;-69
2022/01/22 05:17:40;;;;;;;12.98;1.70;;;6.90;99.90;;;;;;5096190;28;20111;-69
2022/01/22 05:20:13;;;;;;;8.95;1.88;;;7.00;99.90;;;;;;5096624;28;20044;-69
2022/01/22 05:22:53;;;;;;;9.90;1.55;;;6.90;99.90;;;;;;5096614;28;20075;-69
2022/01/22 05:25:23;;;;;;;4.95;1.67;;;6.90;99.90;;;;;;5095716;28;20115;-69
2022/01/22 05:28:13;;;;;;;7.88;1.85;;;6.90;99.90;;;;;;5094906;28;20104;-69
2022/01/22 05:38:30;;;;;;;8.23;1.60;;;7.00;99.90;;;;;;5095526;28;20047;-69
2022/01/22 05:40:56;;;;;;;11.68;2.08;;;6.90;99.90;;;;;;5096142;28;20036;-69
2022/01/22 05:43:22;;;;;;;9.45;2.33;;;6.90;99.90;;;;;;5096480;28;20036;-69
2022/01/22 05:45:47;;;;;;;12.32;2.78;;;6.80;99.90;;;;;;5095929;28;20043;-69
2022/01/22 05:48:13;;;;;;;6.47;2.20;;;6.90;99.90;;;;;;5095944;28;20040;-69
2022/01/22 05:53:36;;;;;;;7.35;2.45;;;6.90;99.90;;;;;;5094875;28;20036;-69
2022/01/22 06:01:16;;;;;;;9.65;2.63;;;6.90;99.90;;;;;;5094318;28;20050;-69
2022/01/22 06:03:43;;;;;;;13.48;2.78;;;7.00;99.90;;;;;;5094538;28;20059;-69
2022/01/22 06:06:09;;;;;;;15.13;2.55;;;7.00;99.90;;;;;;5093915;28;20118;-69
2022/01/22 06:08:42;;;;;;;13.45;2.47;;;7.00;99.90;;;;;;5095724;28;20085;-69
2022/01/22 06:11:09;;;;;;;9.73;2.50;;;7.00;99.90;;;;;;5095516;28;20040;-69
2022/01/22 06:13:46;;;;;;;11.20;3.03;;;6.90;99.90;;;;;;5095054;28;20094;-69
2022/01/22 06:16:13;;;;;;;9.95;2.78;;;7.00;99.90;;;;;;5094341;28;20040;-69
2022/01/22 06:18:39;;;;;;;11.07;2.72;;;7.00;99.90;;;;;;5095572;28;20048;-69
2022/01/22 06:21:05;;;;;;;6.95;2.45;;;7.00;99.90;;;;;;5094285;28;20404;-69
2022/01/22 06:23:31;;;;;;;14.57;2.83;;;6.90;99.90;;;;;;5095414;28;20111;-69
2022/01/22 06:26:00;;;;;;;17.77;3.08;;;6.90;99.90;;;;;;5095009;28;20055;-69
2022/01/22 06:28:26;;;;;;;14.82;2.63;;;6.90;99.90;;;;;;5093979;28;20121;-69
2022/01/22 06:30:52;;;;;;;8.40;2.30;;;6.90;99.90;;;;;;5095241;28;20111;-69
2022/01/22 06:33:17;;;;;;;11.88;3.00;;;6.90;99.90;;;;;;5095327;28;20074;-69
2022/01/22 06:35:43;;;;;;;11.27;2.80;;;6.90;99.90;;;;;;5095128;28;20040;-69
2022/01/22 06:38:09;;;;;;;9.23;2.22;;;6.90;99.90;;;;;;5094997;28;20150;-69
2022/01/22 06:43:01;;;;;;;8.57;2.53;;;6.90;99.90;;;;;;5095078;28;20054;-69
2022/01/22 06:45:26;;;;;;;15.38;2.67;;;7.00;99.90;;;;;;5094771;28;20046;-70
2022/01/22 06:47:52;;;;;;;15.68;3.25;;;6.90;99.90;;;;;;5094686;28;20066;-69
2022/01/22 06:50:19;;;;;;;11.63;2.75;;;7.00;99.90;;;;;;5094993;28;20077;-69
2022/01/22 06:52:45;;;;;;;11.32;2.20;;;7.00;99.90;;;;;;5093753;28;20477;-69
2022/01/22 06:55:15;;;;;;;8.80;2.15;;;7.00;99.90;;;;;;5095227;28;20060;-69
2022/01/22 06:57:40;;;;;;;6.05;2.03;;;6.90;99.90;;;;;;5093065;28;20122;-69
2022/01/22 07:00:06;;;;;;;6.28;1.50;;;7.00;99.90;;;;;;5093497;28;20473;-69
2022/01/22 07:02:32;;;;;;;6.10;1.60;;;7.00;99.90;;;;;;5094801;28;20502;-69
2022/01/22 07:04:58;;;;;;;3.67;1.40;;;7.00;99.90;;;;;;5094568;28;20044;-69
2022/01/22 07:07:23;;;;;;;5.05;1.40;;;7.00;99.90;;;;;;5093860;28;20082;-69
2022/01/22 07:09:49;;;;;;;7.60;2.15;;;6.90;99.90;;;;;;5093524;28;20048;-69
2022/01/22 07:12:14;;;;;;;8.00;2.20;;;6.80;99.90;;;;;;5094158;28;20032;-69
2022/01/22 07:14:41;;;;;;;11.35;2.53;;;6.80;99.90;;;;;;5076089;28;20380;-69
2022/01/22 07:17:08;;;;;;;4.97;2.20;;;6.90;99.90;;;;;;5094670;28;20040;-68
2022/01/22 07:19:39;;;;;;;9.15;1.70;;;6.90;99.90;;;;;;5094419;28;20071;-69
2022/01/22 07:22:19;;;;;;;11.68;2.40;;;6.90;99.90;;;;;;5094459;28;20387;-69
2022/01/22 07:24:44;;;;;;;5.18;1.83;;;6.90;99.90;;;;;;5093413;28;20047;-69
2022/01/22 07:27:10;;;;;;;13.48;2.83;;;6.80;99.90;;;;;;5093887;28;20044;-69
2022/01/22 07:29:35;;;;;;;10.30;2.47;;;6.90;99.90;;;;;;5092768;28;20050;-69
2022/01/22 07:32:03;;;;;;;8.25;2.33;;;6.80;99.90;;;;;;5093171;28;20063;-69
2022/01/22 07:34:29;;;;;;;11.63;2.42;;;6.80;99.90;;;;;;5094310;28;20032;-69
2022/01/22 07:36:54;;;;;;;13.07;3.15;;;6.80;99.90;;;;;;5093716;28;20040;-69
2022/01/22 07:39:20;;;;;;;9.93;3.55;;;6.80;99.90;;;;;;5093864;28;20024;-69
2022/01/22 07:41:46;;;;;;;10.60;3.35;;;6.70;99.90;;;;;;5093968;28;20035;-69
2022/01/22 07:44:12;;;;;;;7.63;2.25;;;6.80;99.90;;;;;;5094036;28;20078;-69
2022/01/22 07:46:37;;;;;;;10.70;2.38;;;6.70;99.90;;;;;;5093520;28;20435;-69
2022/01/22 07:49:05;;;;;;;10.07;2.33;;;6.70;99.90;;;;;;5093627;28;20408;-69
2022/01/22 07:51:31;;;;;;;6.07;2.08;;;6.70;99.90;;;;;;5093611;28;20044;-69
2022/01/22 07:53:58;;;;;;;4.22;2.08;;;6.70;99.90;;;;;;5093937;28;20071;-69
2022/01/22 07:56:24;;;;;;;5.78;1.85;;;6.80;99.90;;;;;;5093450;28;20031;-69
2022/01/22 07:58:49;;;;;;;6.32;1.98;;;6.80;99.90;;;;;;5093598;28;20036;-69
2022/01/22 08:01:15;;;;;;;7.57;2.38;;;6.80;99.90;;;;;;5092509;28;20472;-69
2022/01/22 08:03:41;;;;;;;10.32;2.60;;;6.80;99.90;;;;;;5092527;28;20404;-69
2022/01/22 08:06:06;;;;;;;6.88;2.10;;;6.70;99.90;;;;;;5091727;28;20471;-69
2022/01/22 08:08:34;;;;;;;6.82;2.47;;;6.80;99.90;;;;;;5093931;28;20062;-69
2022/01/22 08:11:00;;;;;;;6.63;2.13;;;6.70;99.90;;;;;;5093407;28;20043;-69
2022/01/22 08:13:26;;;;;;;7.95;3.17;;;6.80;99.90;;;;;;5093565;28;20044;-69
2022/01/22 08:15:51;;;;;;;10.85;2.58;;;6.80;99.90;;;;;;5093257;28;20094;-69
2022/01/22 08:18:17;;;;;;;13.82;3.08;;;6.70;99.90;;;;;;5093455;28;20042;-69
2022/01/22 08:20:42;;;;;;;6.03;2.25;;;6.80;99.90;;;;;;5092448;28;20056;-69
2022/01/22 08:23:08;;;;;;;6.15;2.08;;;6.80;99.90;;;;;;5092115;28;20040;-69
2022/01/22 08:25:34;;;;;;;3.25;1.88;;;6.80;99.90;;;;;;5091902;28;20044;-68
2022/01/22 08:30:36;;;;;;;5.88;1.80;;;6.80;99.90;;;;;;5092795;28;20363;-69
2022/01/22 08:35:53;;;;;;;7.40;2.22;;;6.80;99.90;;;;;;5091806;28;20044;-68
2022/01/22 08:38:21;;;;;;;7.75;1.85;;;6.80;99.90;;;;;;5094834;28;20416;-69
2022/01/22 08:40:46;;;;;;;6.05;2.17;;;6.70;99.90;;;;;;5097152;28;20465;-69
2022/01/22 08:43:12;;;;;;;4.90;1.63;;;6.80;99.90;;;;;;5097409;28;20044;-69
2022/01/22 08:45:37;;;;;;;2.85;1.17;;;6.80;99.90;;;;;;5096917;28;20032;-69
2022/01/22 08:48:04;;;;;;;6.40;1.95;;;6.80;99.90;;;;;;5095865;28;20040;-70
2022/01/22 08:50:30;;;;;;;4.97;1.63;;;6.80;99.90;;;;;;5096047;28;20070;-69
2022/01/22 08:52:55;;;;;;;11.93;1.52;;;6.80;99.90;;;;;;5097006;28;20048;-69
2022/01/22 08:55:21;;;;;;;7.07;1.83;;;6.70;99.90;;;;;;5097645;28;20032;-70
2022/01/22 08:57:49;;;;;;;6.88;1.75;;;6.80;99.90;;;;;;5095616;28;20052;-70
2022/01/22 09:00:17;;;;;;;9.23;1.75;;;6.80;99.90;;;;;;5096759;28;20430;-70
2022/01/22 09:02:44;;;;;;;6.80;1.55;;;6.70;99.90;;;;;;5079289;28;20044;-69
2022/01/22 09:05:11;;;;;;;6.00;1.55;;;6.80;99.90;;;;;;5097231;28;20059;-70
2022/01/22 09:07:37;;;;;;;5.50;1.15;;;6.70;99.90;;;;;;5096709;28;20142;-70
2022/01/22 09:10:04;;;;;;;8.23;1.83;;;6.70;99.90;;;;;;5096885;28;20055;-70
2022/01/22 09:12:29;;;;;;;6.70;1.67;;;6.70;99.90;;;;;;5097174;28;20075;-69
2022/01/22 09:14:55;;;;;;;5.25;1.50;;;6.80;99.90;;;;;;5096526;28;20403;-70
2022/01/22 09:17:22;;;;;;;7.90;1.60;;;6.80;99.90;;;;;;5096395;28;20042;-70
2022/01/22 09:19:48;;;;;;;4.65;1.30;;;6.80;99.90;;;;;;5096620;28;20040;-70
2022/01/22 09:22:15;;;;;;;4.82;1.00;;;6.80;99.90;;;;;;5095421;28;20054;-70
2022/01/22 09:24:40;;;;;;;6.20;0.90;;;6.80;99.90;;;;;;5096760;28;20032;-70
2022/01/22 09:27:07;;;;;;;4.00;1.00;;;6.80;99.90;;;;;;5096014;28;20069;-70
2022/01/22 09:29:35;;;;;;;2.85;0.98;;;6.80;99.90;;;;;;5095744;28;20440;-70
2022/01/22 09:32:01;;;;;;;2.45;0.70;;;7.00;99.90;;;;;;5096533;28;20040;-70
2022/01/22 09:34:26;;;;;;;6.95;1.08;;;6.90;99.90;;;;;;5096448;28;20085;-70
2022/01/22 09:36:52;;;;;;;5.47;2.05;;;7.00;99.90;;;;;;5077734;28;20491;-69
2022/01/22 09:39:18;;;;;;;7.90;0.93;;;6.90;99.90;;;;;;5096082;28;20389;-69
2022/01/22 09:41:43;;;;;;;7.97;1.48;;;6.90;99.90;;;;;;5096091;28;20078;-69
2022/01/22 09:44:09;;;;;;;2.03;0.90;;;6.90;99.90;;;;;;5095978;28;20499;-69
2022/01/22 09:46:36;;;;;;;2.50;0.98;;;6.90;99.90;;;;;;5095994;28;20131;-69
2022/01/22 09:49:03;;;;;;;4.78;0.80;;;6.90;99.90;;;;;;5094797;28;20044;-69
2022/01/22 09:51:28;;;;;;;5.28;1.10;;;6.90;99.90;;;;;;5094118;28;20090;-69
2022/01/22 09:53:56;;;;;;;3.58;1.17;;;6.90;99.90;;;;;;5095346;28;20353;-70
2022/01/22 09:56:24;;;;;;;4.45;1.00;;;6.90;99.90;;;;;;5095349;28;20097;-70
2022/01/22 09:58:50;;;;;;;4.78;1.27;;;6.90;99.90;;;;;;5094856;28;20048;-69
2022/01/22 10:01:20;;;;;;;5.07;1.30;;;7.00;99.90;;;;;;5094447;28;20044;-69
2022/01/22 10:03:47;;;;;;;4.32;1.40;;;6.90;99.90;;;;;;5095706;28;20119;-69
2022/01/22 10:06:14;;;;;;;3.92;1.25;;;7.00;99.90;;;;;;5095283;28;20040;-69
2022/01/22 10:08:40;;;;;;;8.75;1.83;;;7.00;99.90;;;;;;5094128;28;20036;-69
2022/01/22 10:11:18;;;;;;;7.65;1.52;;;6.90;99.90;;;;;;5094059;28;20551;-69
2022/01/22 10:13:52;;;;;;;6.50;1.23;;;7.00;99.90;;;;;;5095659;28;20036;-69
2022/01/22 10:16:26;;;;;;;7.05;1.50;;;6.90;99.90;;;;;;5093306;28;20128;-70
2022/01/22 10:19:06;;;;;;;7.88;1.52;;;6.90;99.90;;;;;;5065024;28;20056;-69
2022/01/22 10:21:32;;;;;;;7.40;1.48;;;7.00;99.90;;;;;;5085801;28;20039;-70
2022/01/22 10:24:26;;;;;;;6.97;1.45;;;7.10;99.90;;;;;;5095493;28;20093;-70
2022/01/22 10:27:32;;;;;;;7.50;1.60;;;7.20;99.90;;;;;;5094168;28;20048;-69
2022/01/22 10:30:03;;;;;;;6.25;1.38;;;7.10;99.90;;;;;;5094162;28;20043;-69
2022/01/22 10:32:49;;;;;;;4.72;1.02;;;7.10;99.90;;;;;;5093861;28;20446;-69
2022/01/22 10:35:23;;;;;;;3.85;1.40;;;7.10;99.90;;;;;;5090852;28;20040;-69
2022/01/22 10:37:57;;;;;;;6.82;0.98;;;7.10;99.90;;;;;;5081641;28;20051;-70
2022/01/22 10:40:25;;;;;;;3.25;1.00;;;7.20;99.90;;;;;;5084213;28;20450;-70
2022/01/22 10:42:51;;;;;;;6.15;1.17;;;7.20;99.90;;;;;;5082801;28;20044;-69
2022/01/22 10:45:26;;;;;;;3.58;0.98;;;7.20;99.90;;;;;;5084255;28;20042;-69
2022/01/22 10:48:12;;;;;;;4.88;1.55;;;7.10;99.90;;;;;;5081679;28;20051;-69
2022/01/22 10:50:38;;;;;;;6.30;1.27;;;7.10;99.90;;;;;;5083275;28;20050;-70
2022/01/22 10:53:04;;;;;;;9.00;1.00;;;7.10;99.90;;;;;;5082796;28;20024;-70
2022/01/22 10:55:30;;;;;;;7.55;1.35;;;7.20;99.90;;;;;;5084085;28;20046;-69
2022/01/22 10:58:09;;;;;;;3.13;1.17;;;7.10;99.90;;;;;;5082077;28;20054;-70
2022/01/22 11:00:36;;;;;;;9.70;1.52;;;7.20;99.90;;;;;;5083486;28;20032;-70
2022/01/22 11:03:19;;;;;;;3.88;1.40;;;7.10;99.90;;;;;;5082785;28;20028;-69
2022/01/22 11:05:44;;;;;;;8.90;1.60;;;7.10;99.90;;;;;;5080548;28;20072;-69
2022/01/22 11:08:13;;;;;;;5.22;1.63;;;7.20;99.90;;;;;;5083794;28;20060;-69
2022/01/22 11:10:40;;;;;;;8.48;2.67;;;7.20;99.90;;;;;;5084918;28;20040;-69
2022/01/22 11:13:06;;;;;;;6.63;1.48;;;7.10;99.90;;;;;;5083176;28;20043;-69
2022/01/22 11:15:33;;;;;;;3.28;1.27;;;7.10;99.90;;;;;;5083141;28;20036;-69
2022/01/22 11:18:00;;;;;;;3.10;1.10;;;7.10;99.90;;;;;;5083539;28;20048;-69
2022/01/22 11:20:26;;;;;;;6.68;2.03;;;7.10;99.90;;;;;;5056151;28;20123;-69
2022/01/22 11:22:53;;;;;;;5.28;1.65;;;7.20;99.90;;;;;;5073903;28;20115;-69
2022/01/22 11:25:21;;;;;;;5.55;1.50;;;7.00;99.90;;;;;;5073826;28;20040;-69
2022/01/22 11:27:49;;;;;;;5.30;1.45;;;7.20;99.90;;;;;;5073896;28;20041;-69
2022/01/22 11:30:17;;;;;;;5.32;1.73;;;7.10;99.90;;;;;;5072469;28;20041;-69
2022/01/22 11:33:02;;;;;;;7.13;1.60;;;7.20;99.90;;;;;;5072823;28;20051;-69
2022/01/22 11:35:44;;;;;;;7.22;1.92;;;7.20;99.90;;;;;;5074109;28;20083;-69
2022/01/22 11:38:29;;;;;;;7.72;1.90;;;7.10;99.90;;;;;;5073536;28;20044;-69
2022/01/22 11:41:11;;;;;;;7.07;2.60;;;7.10;99.90;;;;;;5074108;28;20048;-69
2022/01/22 11:44:04;;;;;;;6.88;2.05;;;7.10;99.90;;;;;;5072388;28;20036;-69
2022/01/22 11:46:36;;;;;;;10.13;2.47;;;7.10;99.90;;;;;;5072183;28;20045;-69
2022/01/22 11:49:25;;;;;;;6.07;2.20;;;7.20;99.90;;;;;;5055227;28;20040;-69
2022/01/22 11:52:13;;;;;;;11.10;2.47;;;7.10;99.90;;;;;;5073610;28;20111;-69
2022/01/22 11:55:00;;;;;;;7.55;2.20;;;7.10;99.90;;;;;;5072896;28;20044;-69
2022/01/22 11:57:28;;;;;;;11.68;3.42;;;7.10;99.90;;;;;;5073019;28;20469;-69
2022/01/22 12:00:12;;;;;;;7.60;2.33;;;7.10;99.90;;;;;;5073509;28;20094;-68
2022/01/22 12:02:38;;;;;;;9.38;2.63;;;7.20;99.90;;;;;;5073499;28;20037;-69
2022/01/22 12:05:05;;;;;;;8.38;2.45;;;7.10;99.90;;;;;;5072480;28;20036;-69
2022/01/22 12:07:35;;;;;;;9.80;2.88;;;7.10;99.90;;;;;;5072888;28;20048;-68
2022/01/22 12:15:39;;;;;;;9.77;2.78;;;7.20;99.90;;;;;;5071677;28;20123;-69
2022/01/22 12:18:12;;;;;;;11.45;3.55;;;7.20;99.90;;;;;;5072089;28;20530;-69
2022/01/22 12:23:19;;;;;;;11.52;3.92;;;7.20;99.90;;;;;;5073357;28;20083;-69
2022/01/22 12:25:44;;;;;;;13.35;4.20;;;7.20;99.90;;;;;;5071493;28;20052;-70
2022/01/22 12:28:12;;;;;;;9.85;3.13;;;7.20;99.90;;;;;;5071583;28;20195;-70
2022/01/22 12:30:48;;;;;;;14.45;3.22;;;7.10;99.90;;;;;;5072411;28;20458;-70
2022/01/22 12:33:34;;;;;;;7.40;3.00;;;7.20;99.90;;;;;;5072229;28;20059;-71
2022/01/22 12:36:05;;;;;;;9.80;3.63;;;7.20;99.90;;;;;;5072123;28;20459;-71
2022/01/22 12:38:45;;;;;;;13.20;4.03;;;7.20;99.90;;;;;;5071839;28;20049;-71
2022/01/22 12:44:05;;;;;;;13.25;4.22;;;7.20;99.90;;;;;;5071944;28;20105;-69
2022/01/22 12:46:31;;;;;;;13.70;4.53;;;7.20;99.90;;;;;;5072629;28;20041;-69
2022/01/22 12:48:57;;;;;;;16.52;5.53;;;7.20;99.90;;;;;;5073261;28;20463;-70
2022/01/22 12:51:25;;;;;;;13.98;4.75;;;7.30;99.90;;;;;;5079700;28;20040;-70
2022/01/22 12:53:51;;;;;;;18.05;5.00;;;7.20;99.90;;;;;;5073163;28;20036;-71
2022/01/22 12:59:02;;;;;;;14.95;3.92;;;7.20;99.90;;;;;;5071503;28;20080;-70
2022/01/22 13:01:30;;;;;;;15.15;5.20;;;7.20;99.90;;;;;;5072674;28;20043;-71
2022/01/22 13:03:57;;;;;;;9.75;4.57;;;7.20;99.90;;;;;;5071708;28;20396;-70
2022/01/22 13:06:36;;;;;;;19.90;4.53;;;7.30;99.90;;;;;;5070923;28;20036;-71
2022/01/22 13:09:03;;;;;;;16.35;4.93;;;7.20;99.90;;;;;;5072522;28;20431;-71
2022/01/22 13:11:31;;;;;;;18.13;5.60;;;7.30;99.90;;;;;;5071971;28;20040;-72
2022/01/22 13:13:58;;;;;;;14.63;4.72;;;7.20;99.90;;;;;;5072827;28;20040;-72
2022/01/22 13:16:24;;;;;;;21.90;4.90;;;7.20;99.90;;;;;;5072260;28;20047;-72
2022/01/22 13:18:58;;;;;;;15.98;4.78;;;7.20;99.90;;;;;;5054716;28;20146;-71
2022/01/22 13:21:30;;;;;;;18.52;4.60;;;7.20;99.90;;;;;;5072567;28;20098;-71
2022/01/22 13:24:04;;;;;;;14.48;5.43;;;7.20;99.90;;;;;;5072034;28;20607;-71
2022/01/22 13:27:08;;;;;;;17.80;5.13;;;7.10;99.90;;;;;;5074488;28;20081;-72
2022/01/22 13:29:38;;;;;;;18.20;4.95;;;7.00;99.90;;;;;;5074706;28;20132;-71
2022/01/22 13:32:05;;;;;;;16.80;4.82;;;7.10;99.90;;;;;;5076314;28;20039;-71
2022/01/22 13:34:47;;;;;;;14.35;4.88;;;7.10;99.90;;;;;;5075015;28;20078;-71
2022/01/22 13:40:37;;;;;;;14.75;4.88;;;7.10;99.90;;;;;;5064746;28;20080;-72
2022/01/22 13:48:34;;;;;;;12.07;3.70;;;7.10;99.90;;;;;;5074441;28;20473;-71
2022/01/22 13:51:02;;;;;;;10.30;3.13;;;7.10;99.90;;;;;;5057575;28;20131;-73
2022/01/22 13:53:29;;;;;;;7.57;3.47;;;7.10;99.90;;;;;;5074269;28;20430;-71
2022/01/22 13:56:06;;;;;;;10.38;4.10;;;7.10;99.90;;;;;;5075150;28;20044;-71
2022/01/22 13:58:32;;;;;;;13.52;3.78;;;7.10;99.90;;;;;;5075381;28;20075;-71
2022/01/22 14:01:06;;;;;;;19.25;3.60;;;7.10;99.90;;;;;;5074323;28;20073;-71
2022/01/22 14:03:44;;;;;;;12.23;3.25;;;7.10;99.90;;;;;;5074136;28;20075;-71
2022/01/22 14:06:10;;;;;;;9.65;3.53;;;7.20;99.90;;;;;;5073931;28;20105;-71
2022/01/22 14:08:36;;;;;;;14.85;4.25;;;7.10;99.90;;;;;;5073831;28;20049;-71
2022/01/22 14:11:08;;;;;;;12.55;3.78;;;7.10;99.90;;;;;;5075266;28;20043;-71
2022/01/22 14:13:34;;;;;;;9.68;3.22;;;7.10;99.90;;;;;;5075091;28;20037;-71
2022/01/22 14:16:15;;;;;;;10.77;3.35;;;7.00;99.90;;;;;;5074868;28;20120;-71
2022/01/22 14:18:46;;;;;;;10.13;2.60;;;7.10;99.90;;;;;;5075072;28;20115;-71
2022/01/22 14:21:20;;;;;;;18.75;2.83;;;7.10;99.90;;;;;;5073626;28;20060;-71
2022/01/22 14:23:47;;;;;;;19.13;3.30;;;7.00;99.90;;;;;;5075574;28;20040;-71
2022/01/22 14:26:28;;;;;;;12.95;3.20;;;7.00;99.90;;;;;;5074751;28;20476;-71
2022/01/22 14:29:07;;;;;;;7.28;3.13;;;7.00;99.90;;;;;;5075715;28;20045;-71
2022/01/22 14:31:44;;;;;;;13.88;2.50;;;7.00;99.90;;;;;;5073585;28;20032;-72
2022/01/22 14:34:12;;;;;;;12.63;3.20;;;7.00;99.90;;;;;;5074744;28;20396;-72
2022/01/22 14:36:39;;;;;;;12.18;3.65;;;7.00;99.90;;;;;;5074097;28;20116;-71
2022/01/22 14:39:25;;;;;;;12.77;2.38;;;6.90;99.90;;;;;;5074824;28;20043;-72
2022/01/22 14:44:48;;;;;;;13.25;2.60;;;6.90;99.90;;;;;;5074059;28;20044;-71
2022/01/22 14:47:15;;;;;;;13.82;3.45;;;6.90;99.90;;;;;;5074458;28;20076;-72
2022/01/22 14:49:46;;;;;;;16.00;3.55;;;6.80;99.90;;;;;;5074445;28;20043;-71
2022/01/22 14:52:14;;;;;;;6.28;2.90;;;6.80;99.90;;;;;;5074398;28;20111;-72
2022/01/22 14:54:43;;;;;;;8.93;2.40;;;6.80;99.90;;;;;;5074515;28;20049;-72
2022/01/22 14:57:11;;;;;;;8.68;2.38;;;6.70;99.90;;;;;;5073906;28;20071;-72